Billinghay, United Kingdom
Current Conditions -  °F | °C
As of 12:50 AM on Wednesday 22 Oct 2014 (Local Time) from EGXC Reporting Station
Clear Clear  
Wind Chill: 38°   Ceiling: Unl
Heat Index: 45°   Visibility: 6mi
Dew Point: 34°   Wind: 13mph
Humidity: 66%   Direction: 270°W
Pressure: 30.06"   Gusts: NA
Location:  53.08°N, 0.28°W
Report Text: EGXC 212350Z 27011KT CAVOK 07/01 Q1018 BLU
Loading
Personal Weather Stations






























Interactive Weather Map New forecast layout! Learn more

10-Day Weather Forecast

Advertisements
Track Severe Weather on mobile